sensor_id;sensor_type;location;lat;lon;timestamp;P1;durP1;ratioP1;P2;durP2;ratioP2
17618;SDS011;8928;51.678;6.074;2023-02-28T00:00:38;23.00;;;9.70;;
17618;SDS011;8928;51.678;6.074;2023-02-28T00:03:26;21.53;;;9.57;;
17618;SDS011;8928;51.678;6.074;2023-02-28T00:06:13;21.27;;;9.37;;
17618;SDS011;8928;51.678;6.074;2023-02-28T00:09:00;21.03;;;9.80;;
17618;SDS011;8928;51.678;6.074;2023-02-28T00:11:47;18.73;;;9.30;;
17618;SDS011;8928;51.678;6.074;2023-02-28T00:14:34;22.50;;;9.47;;
17618;SDS011;8928;51.678;6.074;2023-02-28T00:17:22;20.50;;;9.03;;
17618;SDS011;8928;51.678;6.074;2023-02-28T00:20:11;23.40;;;9.97;;
17618;SDS011;8928;51.678;6.074;2023-02-28T00:22:59;20.40;;;9.40;;
17618;SDS011;8928;51.678;6.074;2023-02-28T00:25:46;19.20;;;9.60;;
17618;SDS011;8928;51.678;6.074;2023-02-28T00:28:33;18.50;;;9.53;;
17618;SDS011;8928;51.678;6.074;2023-02-28T00:31:20;23.37;;;9.93;;
17618;SDS011;8928;51.678;6.074;2023-02-28T00:34:07;19.53;;;9.50;;
17618;SDS011;8928;51.678;6.074;2023-02-28T00:36:55;23.47;;;9.17;;
17618;SDS011;8928;51.678;6.074;2023-02-28T00:39:43;19.20;;;9.33;;
17618;SDS011;8928;51.678;6.074;2023-02-28T00:42:30;20.97;;;9.43;;
17618;SDS011;8928;51.678;6.074;2023-02-28T00:45:17;23.43;;;9.50;;
17618;SDS011;8928;51.678;6.074;2023-02-28T00:48:05;18.53;;;8.50;;
17618;SDS011;8928;51.678;6.074;2023-02-28T00:50:52;21.27;;;9.73;;
17618;SDS011;8928;51.678;6.074;2023-02-28T00:53:40;17.30;;;9.10;;
17618;SDS011;8928;51.678;6.074;2023-02-28T00:56:27;20.43;;;9.13;;
17618;SDS011;8928;51.678;6.074;2023-02-28T00:59:15;16.87;;;8.87;;
17618;SDS011;8928;51.678;6.074;2023-02-28T01:02:03;20.20;;;9.20;;
17618;SDS011;8928;51.678;6.074;2023-02-28T01:04:50;21.43;;;9.10;;
17618;SDS011;8928;51.678;6.074;2023-02-28T01:07:37;22.03;;;8.97;;
17618;SDS011;8928;51.678;6.074;2023-02-28T01:10:25;21.77;;;9.20;;
17618;SDS011;8928;51.678;6.074;2023-02-28T01:13:16;18.93;;;9.03;;
17618;SDS011;8928;51.678;6.074;2023-02-28T01:16:04;20.03;;;9.50;;
17618;SDS011;8928;51.678;6.074;2023-02-28T01:18:51;18.27;;;8.73;;
17618;SDS011;8928;51.678;6.074;2023-02-28T01:21:38;23.13;;;9.10;;
17618;SDS011;8928;51.678;6.074;2023-02-28T01:24:25;19.87;;;9.03;;
17618;SDS011;8928;51.678;6.074;2023-02-28T01:27:14;17.10;;;9.03;;
17618;SDS011;8928;51.678;6.074;2023-02-28T01:30:01;19.63;;;9.40;;
17618;SDS011;8928;51.678;6.074;2023-02-28T01:32:48;20.87;;;9.33;;
17618;SDS011;8928;51.678;6.074;2023-02-28T01:35:36;19.73;;;8.93;;
17618;SDS011;8928;51.678;6.074;2023-02-28T01:38:23;19.07;;;9.27;;
17618;SDS011;8928;51.678;6.074;2023-02-28T01:41:12;18.53;;;9.10;;
17618;SDS011;8928;51.678;6.074;2023-02-28T01:44:04;17.07;;;8.93;;
17618;SDS011;8928;51.678;6.074;2023-02-28T01:46:53;19.00;;;9.30;;
17618;SDS011;8928;51.678;6.074;2023-02-28T01:49:40;18.90;;;9.37;;
17618;SDS011;8928;51.678;6.074;2023-02-28T01:52:28;19.23;;;9.10;;
17618;SDS011;8928;51.678;6.074;2023-02-28T01:55:16;16.73;;;8.60;;
17618;SDS011;8928;51.678;6.074;2023-02-28T01:58:05;18.63;;;8.83;;
17618;SDS011;8928;51.678;6.074;2023-02-28T02:00:55;18.73;;;8.90;;
17618;SDS011;8928;51.678;6.074;2023-02-28T02:03:42;16.40;;;8.80;;
17618;SDS011;8928;51.678;6.074;2023-02-28T02:06:30;20.63;;;9.37;;
17618;SDS011;8928;51.678;6.074;2023-02-28T02:09:22;18.73;;;8.70;;
17618;SDS011;8928;51.678;6.074;2023-02-28T02:12:10;18.37;;;9.03;;
17618;SDS011;8928;51.678;6.074;2023-02-28T02:15:03;15.20;;;8.17;;
17618;SDS011;8928;51.678;6.074;2023-02-28T02:17:56;18.93;;;8.20;;
17618;SDS011;8928;51.678;6.074;2023-02-28T02:28:03;18.33;;;7.50;;
17618;SDS011;8928;51.678;6.074;2023-02-28T02:31:10;17.30;;;7.80;;
17618;SDS011;8928;51.678;6.074;2023-02-28T02:34:28;14.70;;;7.63;;
17618;SDS011;8928;51.678;6.074;2023-02-28T02:37:27;15.67;;;8.17;;
17618;SDS011;8928;51.678;6.074;2023-02-28T02:40:20;19.80;;;8.50;;
17618;SDS011;8928;51.678;6.074;2023-02-28T02:43:11;19.63;;;7.87;;
17618;SDS011;8928;51.678;6.074;2023-02-28T02:46:04;17.23;;;8.07;;
17618;SDS011;8928;51.678;6.074;2023-02-28T02:48:54;16.60;;;7.63;;
17618;SDS011;8928;51.678;6.074;2023-02-28T02:51:45;14.37;;;7.37;;
17618;SDS011;8928;51.678;6.074;2023-02-28T02:54:35;16.83;;;7.17;;
17618;SDS011;8928;51.678;6.074;2023-02-28T02:57:25;14.37;;;7.27;;
17618;SDS011;8928;51.678;6.074;2023-02-28T03:00:16;15.67;;;7.00;;
17618;SDS011;8928;51.678;6.074;2023-02-28T03:03:07;15.40;;;7.30;;
17618;SDS011;8928;51.678;6.074;2023-02-28T03:05:56;19.23;;;7.50;;
17618;SDS011;8928;51.678;6.074;2023-02-28T03:08:45;13.03;;;7.10;;
17618;SDS011;8928;51.678;6.074;2023-02-28T03:11:32;13.70;;;7.00;;
17618;SDS011;8928;51.678;6.074;2023-02-28T03:14:28;14.37;;;6.93;;
17618;SDS011;8928;51.678;6.074;2023-02-28T03:17:40;14.77;;;7.00;;
17618;SDS011;8928;51.678;6.074;2023-02-28T03:20:45;13.47;;;6.77;;
17618;SDS011;8928;51.678;6.074;2023-02-28T03:23:42;15.33;;;6.70;;
17618;SDS011;8928;51.678;6.074;2023-02-28T03:26:38;13.37;;;6.43;;
17618;SDS011;8928;51.678;6.074;2023-02-28T03:29:31;14.77;;;6.50;;
17618;SDS011;8928;51.678;6.074;2023-02-28T03:32:22;12.57;;;6.30;;
17618;SDS011;8928;51.678;6.074;2023-02-28T03:35:14;14.00;;;6.30;;
17618;SDS011;8928;51.678;6.074;2023-02-28T03:38:08;15.13;;;6.47;;
17618;SDS011;8928;51.678;6.074;2023-02-28T03:41:01;12.23;;;6.10;;
17618;SDS011;8928;51.678;6.074;2023-02-28T03:43:53;13.23;;;6.43;;
17618;SDS011;8928;51.678;6.074;2023-02-28T03:46:44;14.47;;;6.37;;
17618;SDS011;8928;51.678;6.074;2023-02-28T03:49:36;11.23;;;6.30;;
17618;SDS011;8928;51.678;6.074;2023-02-28T03:52:29;12.40;;;6.20;;
17618;SDS011;8928;51.678;6.074;2023-02-28T03:55:20;11.70;;;5.77;;
17618;SDS011;8928;51.678;6.074;2023-02-28T03:58:11;9.60;;;5.90;;
17618;SDS011;8928;51.678;6.074;2023-02-28T04:01:03;13.43;;;6.23;;
17618;SDS011;8928;51.678;6.074;2023-02-28T04:03:53;11.73;;;5.77;;
17618;SDS011;8928;51.678;6.074;2023-02-28T04:06:40;13.17;;;6.00;;
17618;SDS011;8928;51.678;6.074;2023-02-28T04:09:28;12.77;;;6.17;;
17618;SDS011;8928;51.678;6.074;2023-02-28T04:12:15;14.57;;;6.07;;
17618;SDS011;8928;51.678;6.074;2023-02-28T04:15:04;11.30;;;5.93;;
17618;SDS011;8928;51.678;6.074;2023-02-28T04:17:52;10.23;;;5.73;;
17618;SDS011;8928;51.678;6.074;2023-02-28T04:20:39;11.33;;;6.03;;
17618;SDS011;8928;51.678;6.074;2023-02-28T04:23:26;10.33;;;5.60;;
17618;SDS011;8928;51.678;6.074;2023-02-28T04:26:13;13.83;;;5.97;;
17618;SDS011;8928;51.678;6.074;2023-02-28T04:29:00;13.77;;;5.60;;
17618;SDS011;8928;51.678;6.074;2023-02-28T04:31:50;10.60;;;5.73;;
17618;SDS011;8928;51.678;6.074;2023-02-28T04:34:38;15.33;;;6.53;;
17618;SDS011;8928;51.678;6.074;2023-02-28T04:37:25;13.70;;;6.30;;
17618;SDS011;8928;51.678;6.074;2023-02-28T04:40:14;10.97;;;5.83;;
17618;SDS011;8928;51.678;6.074;2023-02-28T04:43:01;11.33;;;6.00;;
17618;SDS011;8928;51.678;6.074;2023-02-28T04:45:48;12.23;;;6.27;;
17618;SDS011;8928;51.678;6.074;2023-02-28T04:48:37;12.93;;;5.83;;
17618;SDS011;8928;51.678;6.074;2023-02-28T04:51:25;10.87;;;5.80;;
17618;SDS011;8928;51.678;6.074;2023-02-28T04:54:12;12.47;;;5.73;;
17618;SDS011;8928;51.678;6.074;2023-02-28T04:57:01;14.27;;;6.23;;
17618;SDS011;8928;51.678;6.074;2023-02-28T04:59:49;9.80;;;5.90;;
17618;SDS011;8928;51.678;6.074;2023-02-28T05:02:36;13.03;;;6.70;;
17618;SDS011;8928;51.678;6.074;2023-02-28T05:05:25;14.23;;;6.03;;
17618;SDS011;8928;51.678;6.074;2023-02-28T05:08:13;13.07;;;5.80;;
17618;SDS011;8928;51.678;6.074;2023-02-28T05:11:00;15.07;;;5.83;;
17618;SDS011;8928;51.678;6.074;2023-02-28T05:13:48;10.63;;;5.40;;
17618;SDS011;8928;51.678;6.074;2023-02-28T05:16:35;10.53;;;5.47;;
17618;SDS011;8928;51.678;6.074;2023-02-28T05:19:23;14.03;;;5.57;;
17618;SDS011;8928;51.678;6.074;2023-02-28T05:22:14;11.47;;;5.07;;
17618;SDS011;8928;51.678;6.074;2023-02-28T05:25:02;10.10;;;4.93;;
17618;SDS011;8928;51.678;6.074;2023-02-28T05:27:50;10.67;;;5.40;;
17618;SDS011;8928;51.678;6.074;2023-02-28T05:30:37;10.43;;;5.50;;
17618;SDS011;8928;51.678;6.074;2023-02-28T05:33:24;10.93;;;5.20;;
17618;SDS011;8928;51.678;6.074;2023-02-28T05:36:11;11.33;;;5.43;;
17618;SDS011;8928;51.678;6.074;2023-02-28T05:39:00;11.03;;;5.33;;
17618;SDS011;8928;51.678;6.074;2023-02-28T05:41:48;13.53;;;5.40;;
17618;SDS011;8928;51.678;6.074;2023-02-28T05:44:35;8.97;;;4.90;;
17618;SDS011;8928;51.678;6.074;2023-02-28T05:47:22;11.83;;;5.23;;
17618;SDS011;8928;51.678;6.074;2023-02-28T05:50:09;10.93;;;5.60;;
17618;SDS011;8928;51.678;6.074;2023-02-28T05:52:57;11.13;;;5.30;;
17618;SDS011;8928;51.678;6.074;2023-02-28T05:55:45;13.50;;;5.77;;
17618;SDS011;8928;51.678;6.074;2023-02-28T05:58:32;10.90;;;5.53;;
17618;SDS011;8928;51.678;6.074;2023-02-28T06:01:21;12.80;;;5.83;;
17618;SDS011;8928;51.678;6.074;2023-02-28T06:04:10;12.03;;;5.03;;
17618;SDS011;8928;51.678;6.074;2023-02-28T06:06:59;10.17;;;5.30;;
17618;SDS011;8928;51.678;6.074;2023-02-28T06:09:46;12.30;;;5.40;;
17618;SDS011;8928;51.678;6.074;2023-02-28T06:12:35;11.37;;;6.17;;
17618;SDS011;8928;51.678;6.074;2023-02-28T06:15:22;11.17;;;5.60;;
17618;SDS011;8928;51.678;6.074;2023-02-28T06:18:10;11.90;;;6.10;;
17618;SDS011;8928;51.678;6.074;2023-02-28T06:20:57;12.20;;;5.83;;
17618;SDS011;8928;51.678;6.074;2023-02-28T06:23:44;10.27;;;5.50;;
17618;SDS011;8928;51.678;6.074;2023-02-28T06:26:31;13.20;;;6.30;;
17618;SDS011;8928;51.678;6.074;2023-02-28T06:29:19;14.10;;;5.97;;
17618;SDS011;8928;51.678;6.074;2023-02-28T06:32:07;11.10;;;5.87;;
17618;SDS011;8928;51.678;6.074;2023-02-28T06:34:54;12.00;;;5.80;;
17618;SDS011;8928;51.678;6.074;2023-02-28T06:37:43;10.87;;;5.47;;
17618;SDS011;8928;51.678;6.074;2023-02-28T06:40:30;12.73;;;5.43;;
17618;SDS011;8928;51.678;6.074;2023-02-28T06:43:20;15.40;;;5.63;;
17618;SDS011;8928;51.678;6.074;2023-02-28T06:46:11;12.33;;;5.50;;
17618;SDS011;8928;51.678;6.074;2023-02-28T06:48:59;14.20;;;5.60;;
17618;SDS011;8928;51.678;6.074;2023-02-28T06:51:46;12.00;;;5.60;;
17618;SDS011;8928;51.678;6.074;2023-02-28T06:54:33;11.43;;;5.10;;
17618;SDS011;8928;51.678;6.074;2023-02-28T06:57:22;16.77;;;5.60;;
17618;SDS011;8928;51.678;6.074;2023-02-28T07:00:10;9.67;;;5.30;;
17618;SDS011;8928;51.678;6.074;2023-02-28T07:02:59;8.67;;;5.10;;
17618;SDS011;8928;51.678;6.074;2023-02-28T07:05:46;13.53;;;5.17;;
17618;SDS011;8928;51.678;6.074;2023-02-28T07:08:33;10.10;;;4.97;;
17618;SDS011;8928;51.678;6.074;2023-02-28T07:11:22;11.07;;;4.80;;
17618;SDS011;8928;51.678;6.074;2023-02-28T07:14:10;10.63;;;5.27;;
17618;SDS011;8928;51.678;6.074;2023-02-28T07:16:57;9.57;;;4.77;;
17618;SDS011;8928;51.678;6.074;2023-02-28T07:19:46;9.73;;;4.73;;
17618;SDS011;8928;51.678;6.074;2023-02-28T07:22:33;12.47;;;5.33;;
17618;SDS011;8928;51.678;6.074;2023-02-28T07:25:20;10.20;;;4.80;;
17618;SDS011;8928;51.678;6.074;2023-02-28T07:28:07;9.43;;;4.80;;
17618;SDS011;8928;51.678;6.074;2023-02-28T07:30:54;8.30;;;4.70;;
17618;SDS011;8928;51.678;6.074;2023-02-28T07:33:41;9.37;;;4.80;;
17618;SDS011;8928;51.678;6.074;2023-02-28T07:36:30;12.40;;;5.17;;
17618;SDS011;8928;51.678;6.074;2023-02-28T07:39:17;10.40;;;5.03;;
17618;SDS011;8928;51.678;6.074;2023-02-28T07:42:04;10.40;;;4.90;;
17618;SDS011;8928;51.678;6.074;2023-02-28T07:44:54;9.30;;;4.70;;
17618;SDS011;8928;51.678;6.074;2023-02-28T07:47:42;9.67;;;4.97;;
17618;SDS011;8928;51.678;6.074;2023-02-28T07:50:29;10.83;;;4.80;;
17618;SDS011;8928;51.678;6.074;2023-02-28T07:53:17;9.07;;;4.80;;
17618;SDS011;8928;51.678;6.074;2023-02-28T07:56:05;11.53;;;4.90;;
17618;SDS011;8928;51.678;6.074;2023-02-28T07:58:53;11.70;;;5.07;;
17618;SDS011;8928;51.678;6.074;2023-02-28T08:01:40;10.97;;;4.73;;
17618;SDS011;8928;51.678;6.074;2023-02-28T08:04:31;10.50;;;4.80;;
17618;SDS011;8928;51.678;6.074;2023-02-28T08:07:19;11.33;;;4.47;;
17618;SDS011;8928;51.678;6.074;2023-02-28T08:10:08;15.60;;;4.90;;
17618;SDS011;8928;51.678;6.074;2023-02-28T08:12:56;8.67;;;4.20;;
17618;SDS011;8928;51.678;6.074;2023-02-28T08:15:43;7.90;;;4.27;;
17618;SDS011;8928;51.678;6.074;2023-02-28T08:18:31;11.80;;;4.20;;
17618;SDS011;8928;51.678;6.074;2023-02-28T08:21:18;9.17;;;4.40;;
17618;SDS011;8928;51.678;6.074;2023-02-28T08:24:06;8.40;;;3.87;;
17618;SDS011;8928;51.678;6.074;2023-02-28T08:26:55;11.37;;;4.77;;
17618;SDS011;8928;51.678;6.074;2023-02-28T08:29:42;10.50;;;5.07;;
17618;SDS011;8928;51.678;6.074;2023-02-28T08:32:29;11.70;;;4.53;;
17618;SDS011;8928;51.678;6.074;2023-02-28T08:35:16;10.30;;;4.67;;
17618;SDS011;8928;51.678;6.074;2023-02-28T08:38:03;7.77;;;4.40;;
17618;SDS011;8928;51.678;6.074;2023-02-28T08:40:56;8.03;;;4.57;;
17618;SDS011;8928;51.678;6.074;2023-02-28T08:43:45;8.43;;;4.57;;
17618;SDS011;8928;51.678;6.074;2023-02-28T08:46:32;9.87;;;4.77;;
17618;SDS011;8928;51.678;6.074;2023-02-28T08:49:19;9.60;;;3.73;;
17618;SDS011;8928;51.678;6.074;2023-02-28T08:52:06;6.30;;;3.57;;
17618;SDS011;8928;51.678;6.074;2023-02-28T08:54:53;7.07;;;2.97;;
17618;SDS011;8928;51.678;6.074;2023-02-28T08:57:40;4.60;;;2.87;;
17618;SDS011;8928;51.678;6.074;2023-02-28T09:00:28;7.30;;;3.17;;
17618;SDS011;8928;51.678;6.074;2023-02-28T09:03:15;5.63;;;2.60;;
17618;SDS011;8928;51.678;6.074;2023-02-28T09:06:02;3.73;;;2.30;;
17618;SDS011;8928;51.678;6.074;2023-02-28T09:08:51;6.57;;;2.50;;
17618;SDS011;8928;51.678;6.074;2023-02-28T09:11:39;4.50;;;2.23;;
17618;SDS011;8928;51.678;6.074;2023-02-28T09:14:26;6.10;;;2.60;;
17618;SDS011;8928;51.678;6.074;2023-02-28T09:17:14;4.03;;;2.10;;
17618;SDS011;8928;51.678;6.074;2023-02-28T09:20:01;3.90;;;2.30;;
17618;SDS011;8928;51.678;6.074;2023-02-28T09:22:48;3.90;;;2.10;;
17618;SDS011;8928;51.678;6.074;2023-02-28T09:25:36;7.53;;;2.40;;
17618;SDS011;8928;51.678;6.074;2023-02-28T09:28:23;5.57;;;2.27;;
17618;SDS011;8928;51.678;6.074;2023-02-28T09:31:11;5.13;;;2.33;;
17618;SDS011;8928;51.678;6.074;2023-02-28T09:34:01;6.07;;;2.57;;
17618;SDS011;8928;51.678;6.074;2023-02-28T09:36:48;3.57;;;2.00;;
17618;SDS011;8928;51.678;6.074;2023-02-28T09:39:36;4.00;;;2.30;;
17618;SDS011;8928;51.678;6.074;2023-02-28T09:42:24;4.00;;;1.80;;
17618;SDS011;8928;51.678;6.074;2023-02-28T09:45:19;4.00;;;2.00;;
17618;SDS011;8928;51.678;6.074;2023-02-28T09:48:11;3.37;;;2.00;;
17618;SDS011;8928;51.678;6.074;2023-02-28T09:51:04;4.87;;;2.20;;
17618;SDS011;8928;51.678;6.074;2023-02-28T09:54:02;3.40;;;1.87;;
17618;SDS011;8928;51.678;6.074;2023-02-28T09:56:50;3.87;;;2.10;;
17618;SDS011;8928;51.678;6.074;2023-02-28T09:59:40;4.07;;;1.90;;
17618;SDS011;8928;51.678;6.074;2023-02-28T10:02:41;3.83;;;2.20;;
17618;SDS011;8928;51.678;6.074;2023-02-28T10:05:41;5.27;;;2.00;;
17618;SDS011;8928;51.678;6.074;2023-02-28T10:08:37;3.90;;;1.60;;
17618;SDS011;8928;51.678;6.074;2023-02-28T10:11:32;2.93;;;1.63;;
17618;SDS011;8928;51.678;6.074;2023-02-28T10:14:22;4.80;;;1.43;;
17618;SDS011;8928;51.678;6.074;2023-02-28T10:17:12;2.87;;;1.70;;
17618;SDS011;8928;51.678;6.074;2023-02-28T10:20:06;3.03;;;1.70;;
17618;SDS011;8928;51.678;6.074;2023-02-28T10:22:59;4.50;;;1.70;;
17618;SDS011;8928;51.678;6.074;2023-02-28T10:25:55;4.27;;;1.80;;
17618;SDS011;8928;51.678;6.074;2023-02-28T10:28:45;3.47;;;1.60;;
17618;SDS011;8928;51.678;6.074;2023-02-28T10:31:32;2.37;;;1.60;;
17618;SDS011;8928;51.678;6.074;2023-02-28T10:34:19;3.40;;;1.70;;
17618;SDS011;8928;51.678;6.074;2023-02-28T10:37:06;2.37;;;1.60;;
17618;SDS011;8928;51.678;6.074;2023-02-28T10:39:53;2.30;;;1.50;;
17618;SDS011;8928;51.678;6.074;2023-02-28T10:42:42;3.10;;;1.50;;
17618;SDS011;8928;51.678;6.074;2023-02-28T10:45:52;2.53;;;1.70;;
17618;SDS011;8928;51.678;6.074;2023-02-28T10:48:43;2.17;;;1.40;;
17618;SDS011;8928;51.678;6.074;2023-02-28T10:51:36;2.87;;;1.40;;
17618;SDS011;8928;51.678;6.074;2023-02-28T10:54:27;2.50;;;1.53;;
17618;SDS011;8928;51.678;6.074;2023-02-28T10:57:17;3.33;;;1.30;;
17618;SDS011;8928;51.678;6.074;2023-02-28T11:00:12;2.63;;;1.43;;
17618;SDS011;8928;51.678;6.074;2023-02-28T11:03:01;3.73;;;1.60;;
17618;SDS011;8928;51.678;6.074;2023-02-28T11:06:15;2.17;;;1.53;;
17618;SDS011;8928;51.678;6.074;2023-02-28T11:09:05;2.77;;;1.60;;
17618;SDS011;8928;51.678;6.074;2023-02-28T11:12:05;2.80;;;1.80;;
17618;SDS011;8928;51.678;6.074;2023-02-28T11:15:18;3.87;;;1.67;;
17618;SDS011;8928;51.678;6.074;2023-02-28T11:18:18;2.63;;;1.70;;
17618;SDS011;8928;51.678;6.074;2023-02-28T11:21:09;2.93;;;1.57;;
17618;SDS011;8928;51.678;6.074;2023-02-28T11:24:05;3.17;;;1.70;;
17618;SDS011;8928;51.678;6.074;2023-02-28T11:27:05;2.27;;;1.47;;
17618;SDS011;8928;51.678;6.074;2023-02-28T11:29:56;3.73;;;1.70;;
17618;SDS011;8928;51.678;6.074;2023-02-28T11:32:48;3.00;;;1.67;;
17618;SDS011;8928;51.678;6.074;2023-02-28T11:35:36;5.03;;;1.73;;
17618;SDS011;8928;51.678;6.074;2023-02-28T11:38:25;3.83;;;1.63;;
17618;SDS011;8928;51.678;6.074;2023-02-28T11:41:27;6.47;;;1.83;;
17618;SDS011;8928;51.678;6.074;2023-02-28T11:44:31;2.90;;;1.60;;
17618;SDS011;8928;51.678;6.074;2023-02-28T11:47:26;4.47;;;1.50;;
17618;SDS011;8928;51.678;6.074;2023-02-28T11:50:31;3.00;;;1.77;;
17618;SDS011;8928;51.678;6.074;2023-02-28T11:53:40;2.53;;;1.50;;
17618;SDS011;8928;51.678;6.074;2023-02-28T11:56:37;3.83;;;1.67;;
17618;SDS011;8928;51.678;6.074;2023-02-28T11:59:30;3.17;;;1.50;;
17618;SDS011;8928;51.678;6.074;2023-02-28T12:02:30;2.77;;;1.63;;
17618;SDS011;8928;51.678;6.074;2023-02-28T12:05:32;2.83;;;1.50;;
17618;SDS011;8928;51.678;6.074;2023-02-28T12:08:26;3.30;;;1.50;;
17618;SDS011;8928;51.678;6.074;2023-02-28T12:11:30;4.83;;;1.50;;
17618;SDS011;8928;51.678;6.074;2023-02-28T12:14:35;3.10;;;1.53;;
17618;SDS011;8928;51.678;6.074;2023-02-28T12:17:43;3.17;;;1.60;;
17618;SDS011;8928;51.678;6.074;2023-02-28T12:20:41;2.20;;;1.47;;
17618;SDS011;8928;51.678;6.074;2023-02-28T12:26:47;2.77;;;1.77;;
17618;SDS011;8928;51.678;6.074;2023-02-28T12:29:39;2.80;;;1.50;;
17618;SDS011;8928;51.678;6.074;2023-02-28T12:32:32;3.93;;;1.60;;
17618;SDS011;8928;51.678;6.074;2023-02-28T12:35:23;3.20;;;1.70;;
17618;SDS011;8928;51.678;6.074;2023-02-28T12:38:17;4.23;;;1.80;;
17618;SDS011;8928;51.678;6.074;2023-02-28T12:41:09;2.87;;;1.70;;
17618;SDS011;8928;51.678;6.074;2023-02-28T12:44:00;3.30;;;1.70;;
17618;SDS011;8928;51.678;6.074;2023-02-28T12:46:52;2.90;;;1.70;;
17618;SDS011;8928;51.678;6.074;2023-02-28T12:49:45;3.27;;;1.80;;
17618;SDS011;8928;51.678;6.074;2023-02-28T12:52:37;4.13;;;1.80;;
17618;SDS011;8928;51.678;6.074;2023-02-28T12:55:33;5.03;;;2.00;;
17618;SDS011;8928;51.678;6.074;2023-02-28T12:58:29;4.70;;;1.67;;
17618;SDS011;8928;51.678;6.074;2023-02-28T13:11:29;4.73;;;1.80;;
17618;SDS011;8928;51.678;6.074;2023-02-28T13:14:22;4.60;;;1.87;;
17618;SDS011;8928;51.678;6.074;2023-02-28T13:17:13;4.07;;;1.90;;
17618;SDS011;8928;51.678;6.074;2023-02-28T13:20:13;3.93;;;1.90;;
17618;SDS011;8928;51.678;6.074;2023-02-28T13:23:03;4.37;;;1.60;;
17618;SDS011;8928;51.678;6.074;2023-02-28T13:26:10;3.50;;;1.90;;
17618;SDS011;8928;51.678;6.074;2023-02-28T13:29:00;3.23;;;1.63;;
17618;SDS011;8928;51.678;6.074;2023-02-28T13:35:15;3.07;;;1.97;;
17618;SDS011;8928;51.678;6.074;2023-02-28T13:38:23;3.97;;;1.70;;
17618;SDS011;8928;51.678;6.074;2023-02-28T13:41:41;2.53;;;1.60;;
17618;SDS011;8928;51.678;6.074;2023-02-28T13:44:30;5.67;;;2.17;;
17618;SDS011;8928;51.678;6.074;2023-02-28T13:47:58;3.37;;;1.90;;
17618;SDS011;8928;51.678;6.074;2023-02-28T13:50:48;3.07;;;2.00;;
17618;SDS011;8928;51.678;6.074;2023-02-28T13:53:46;3.10;;;1.83;;
17618;SDS011;8928;51.678;6.074;2023-02-28T13:56:45;3.53;;;2.10;;
17618;SDS011;8928;51.678;6.074;2023-02-28T13:59:43;4.03;;;2.00;;
17618;SDS011;8928;51.678;6.074;2023-02-28T14:02:50;3.03;;;2.00;;
17618;SDS011;8928;51.678;6.074;2023-02-28T14:08:57;3.30;;;1.90;;
17618;SDS011;8928;51.678;6.074;2023-02-28T14:11:48;3.63;;;2.50;;
17618;SDS011;8928;51.678;6.074;2023-02-28T14:14:56;3.80;;;2.00;;
17618;SDS011;8928;51.678;6.074;2023-02-28T14:17:43;4.10;;;2.20;;
17618;SDS011;8928;51.678;6.074;2023-02-28T14:20:31;4.05;;;2.10;;
17618;SDS011;8928;51.678;6.074;2023-02-28T14:23:23;3.45;;;2.13;;
17618;SDS011;8928;51.678;6.074;2023-02-28T14:26:27;3.55;;;2.05;;
17618;SDS011;8928;51.678;6.074;2023-02-28T14:29:36;6.75;;;2.30;;
17618;SDS011;8928;51.678;6.074;2023-02-28T14:32:46;4.50;;;2.28;;
17618;SDS011;8928;51.678;6.074;2023-02-28T14:35:43;4.53;;;2.10;;
17618;SDS011;8928;51.678;6.074;2023-02-28T14:38:41;3.20;;;2.20;;
17618;SDS011;8928;51.678;6.074;2023-02-28T14:41:31;3.95;;;2.50;;
17618;SDS011;8928;51.678;6.074;2023-02-28T14:44:23;3.20;;;2.13;;
17618;SDS011;8928;51.678;6.074;2023-02-28T14:47:13;3.10;;;2.05;;
17618;SDS011;8928;51.678;6.074;2023-02-28T14:50:03;5.40;;;2.00;;
17618;SDS011;8928;51.678;6.074;2023-02-28T14:52:52;3.28;;;2.20;;
17618;SDS011;8928;51.678;6.074;2023-02-28T14:55:43;3.85;;;2.20;;
17618;SDS011;8928;51.678;6.074;2023-02-28T14:58:31;3.55;;;2.10;;
17618;SDS011;8928;51.678;6.074;2023-02-28T15:01:20;3.08;;;2.10;;
17618;SDS011;8928;51.678;6.074;2023-02-28T15:04:12;3.35;;;2.00;;
17618;SDS011;8928;51.678;6.074;2023-02-28T15:07:09;6.10;;;2.63;;
17618;SDS011;8928;51.678;6.074;2023-02-28T15:10:12;5.75;;;2.80;;
17618;SDS011;8928;51.678;6.074;2023-02-28T15:13:04;3.85;;;2.20;;
17618;SDS011;8928;51.678;6.074;2023-02-28T15:15:54;4.63;;;2.38;;
17618;SDS011;8928;51.678;6.074;2023-02-28T15:18:44;5.07;;;2.20;;
17618;SDS011;8928;51.678;6.074;2023-02-28T15:21:35;3.33;;;2.13;;
17618;SDS011;8928;51.678;6.074;2023-02-28T15:24:29;3.10;;;2.05;;
17618;SDS011;8928;51.678;6.074;2023-02-28T15:27:22;4.25;;;2.58;;
17618;SDS011;8928;51.678;6.074;2023-02-28T15:30:15;5.20;;;3.00;;
17618;SDS011;8928;51.678;6.074;2023-02-28T15:33:06;5.55;;;2.47;;
17618;SDS011;8928;51.678;6.074;2023-02-28T15:36:05;3.87;;;2.30;;
17618;SDS011;8928;51.678;6.074;2023-02-28T15:38:57;4.53;;;2.10;;
17618;SDS011;8928;51.678;6.074;2023-02-28T15:41:45;5.07;;;2.20;;
17618;SDS011;8928;51.678;6.074;2023-02-28T15:44:33;4.97;;;2.23;;
17618;SDS011;8928;51.678;6.074;2023-02-28T15:47:21;4.53;;;2.40;;
17618;SDS011;8928;51.678;6.074;2023-02-28T15:50:10;5.10;;;2.30;;
17618;SDS011;8928;51.678;6.074;2023-02-28T15:52:59;3.37;;;2.17;;
17618;SDS011;8928;51.678;6.074;2023-02-28T15:55:55;6.30;;;2.60;;
17618;SDS011;8928;51.678;6.074;2023-02-28T15:58:48;6.37;;;2.40;;
17618;SDS011;8928;51.678;6.074;2023-02-28T16:01:38;6.43;;;2.50;;
17618;SDS011;8928;51.678;6.074;2023-02-28T16:04:25;3.37;;;2.40;;
17618;SDS011;8928;51.678;6.074;2023-02-28T16:07:16;4.43;;;2.07;;
17618;SDS011;8928;51.678;6.074;2023-02-28T16:10:04;4.40;;;2.60;;
17618;SDS011;8928;51.678;6.074;2023-02-28T16:12:53;3.37;;;2.20;;
17618;SDS011;8928;51.678;6.074;2023-02-28T16:15:42;5.77;;;2.60;;
17618;SDS011;8928;51.678;6.074;2023-02-28T16:18:30;5.57;;;2.67;;
17618;SDS011;8928;51.678;6.074;2023-02-28T16:21:17;4.10;;;2.60;;
17618;SDS011;8928;51.678;6.074;2023-02-28T16:24:04;5.13;;;2.43;;
17618;SDS011;8928;51.678;6.074;2023-02-28T16:26:52;3.93;;;2.47;;
17618;SDS011;8928;51.678;6.074;2023-02-28T16:29:41;4.97;;;2.70;;
17618;SDS011;8928;51.678;6.074;2023-02-28T16:32:31;5.63;;;3.00;;
17618;SDS011;8928;51.678;6.074;2023-02-28T16:35:21;5.60;;;2.53;;
17618;SDS011;8928;51.678;6.074;2023-02-28T16:38:09;5.00;;;2.60;;
17618;SDS011;8928;51.678;6.074;2023-02-28T16:40:56;5.20;;;2.67;;
17618;SDS011;8928;51.678;6.074;2023-02-28T16:43:46;5.53;;;2.80;;
17618;SDS011;8928;51.678;6.074;2023-02-28T16:46:34;5.60;;;2.93;;
17618;SDS011;8928;51.678;6.074;2023-02-28T16:49:24;5.23;;;2.67;;
17618;SDS011;8928;51.678;6.074;2023-02-28T16:52:12;5.37;;;3.07;;
17618;SDS011;8928;51.678;6.074;2023-02-28T16:54:59;6.27;;;2.40;;
17618;SDS011;8928;51.678;6.074;2023-02-28T16:57:46;5.87;;;2.80;;
17618;SDS011;8928;51.678;6.074;2023-02-28T17:00:37;4.77;;;2.90;;
17618;SDS011;8928;51.678;6.074;2023-02-28T17:03:26;5.53;;;3.00;;
17618;SDS011;8928;51.678;6.074;2023-02-28T17:06:19;4.97;;;2.93;;
17618;SDS011;8928;51.678;6.074;2023-02-28T17:09:08;5.40;;;3.20;;
17618;SDS011;8928;51.678;6.074;2023-02-28T17:12:02;5.03;;;2.90;;
17618;SDS011;8928;51.678;6.074;2023-02-28T17:14:49;6.97;;;3.37;;
17618;SDS011;8928;51.678;6.074;2023-02-28T17:17:36;4.60;;;2.90;;
17618;SDS011;8928;51.678;6.074;2023-02-28T17:20:23;5.20;;;3.20;;
17618;SDS011;8928;51.678;6.074;2023-02-28T17:23:13;6.37;;;3.00;;
17618;SDS011;8928;51.678;6.074;2023-02-28T17:26:00;7.53;;;3.90;;
17618;SDS011;8928;51.678;6.074;2023-02-28T17:28:47;8.17;;;4.20;;
17618;SDS011;8928;51.678;6.074;2023-02-28T17:31:36;9.60;;;4.30;;
17618;SDS011;8928;51.678;6.074;2023-02-28T17:34:24;11.00;;;4.87;;
17618;SDS011;8928;51.678;6.074;2023-02-28T17:37:11;10.67;;;4.47;;
17618;SDS011;8928;51.678;6.074;2023-02-28T17:39:59;9.53;;;4.63;;
17618;SDS011;8928;51.678;6.074;2023-02-28T17:42:46;20.30;;;7.17;;
17618;SDS011;8928;51.678;6.074;2023-02-28T17:45:33;33.03;;;11.20;;